createdAt,value
2017-04-25T11:47:34.857Z,40
2017-04-25T11:48:47.768Z,40
2017-04-25T11:50:00.895Z,40
2017-04-25T11:51:13.823Z,40
2017-04-25T11:52:26.481Z,40
2017-04-25T11:57:28.690Z,45
2017-04-25T11:58:41.615Z,50
2017-04-25T11:59:54.535Z,50
2017-04-25T12:01:07.461Z,50
2017-04-25T12:02:20.388Z,50
2017-04-25T12:03:33.566Z,50
2017-04-25T12:04:46.311Z,50
2017-04-25T12:05:59.064Z,50
2017-04-25T12:07:11.338Z,50
2017-04-25T12:08:24.088Z,50
2017-04-25T12:09:36.846Z,50
2017-04-25T12:10:49.590Z,50
2017-04-25T12:12:02.340Z,50
2017-04-25T12:13:15.219Z,55
2017-04-25T12:14:28.303Z,50
2017-04-25T12:15:40.701Z,50
2017-04-25T12:16:53.582Z,55
2017-04-25T12:18:06.461Z,55
2017-04-25T12:19:19.348Z,55
2017-04-25T12:20:32.430Z,55
2017-04-25T12:21:45.309Z,60
2017-04-25T12:22:57.717Z,60
2017-04-25T12:24:24.167Z,60
2017-04-25T12:25:37.058Z,60
2017-04-25T12:26:49.448Z,55
2017-04-25T12:28:02.331Z,55
2017-04-25T12:29:14.724Z,55
2017-04-25T12:30:27.115Z,60
2017-04-25T12:31:40.000Z,55
2017-04-25T12:32:52.110Z,55
2017-04-25T12:34:05.004Z,60
2017-04-25T12:35:18.089Z,60
2017-04-25T12:36:30.971Z,55
2017-04-25T12:37:43.863Z,60
2017-04-25T12:38:56.412Z,65
2017-04-25T12:40:08.977Z,60
2017-04-25T12:41:21.557Z,65
2017-04-25T12:42:34.623Z,60
2017-04-25T12:43:47.699Z,60
2017-04-25T12:45:00.767Z,60
2017-04-25T12:46:13.829Z,60
2017-04-25T12:47:26.903Z,60
2017-04-25T12:48:39.473Z,60
2017-04-25T12:49:52.739Z,60
2017-04-25T12:51:06.414Z,60
2017-04-25T12:52:19.482Z,60
2017-04-25T12:53:32.545Z,60
2017-04-25T12:54:45.114Z,60
2017-04-25T12:55:58.187Z,60
2017-04-25T12:57:13.852Z,60
2017-04-25T12:58:26.440Z,60
2017-04-25T12:59:39.503Z,60
2017-04-25T13:00:52.068Z,60
2017-04-25T13:02:05.139Z,60
2017-04-25T13:03:18.210Z,60
2017-04-25T13:04:31.278Z,60
2017-04-25T13:05:44.340Z,60
2017-04-25T13:06:57.412Z,60
2017-04-25T13:08:09.988Z,60
2017-04-25T13:09:23.055Z,55
2017-04-25T13:10:36.127Z,60
2017-04-25T13:11:48.217Z,60
2017-04-25T13:13:01.283Z,55
2017-04-25T13:14:13.863Z,55
2017-04-25T13:15:26.433Z,55
2017-04-25T13:16:39.506Z,50
2017-04-25T13:17:52.577Z,50
2017-04-25T13:19:05.151Z,55
2017-04-25T13:20:17.223Z,55
2017-04-25T13:21:29.283Z,55
2017-04-25T13:22:41.853Z,55
2017-04-25T13:23:54.422Z,55
2017-04-25T13:25:07.489Z,55
2017-04-25T13:26:19.557Z,55
2017-04-25T13:27:32.621Z,55
2017-04-25T13:28:45.691Z,50
2017-04-25T13:29:58.961Z,55
2017-04-25T13:31:11.030Z,55
2017-04-25T13:32:22.592Z,55
2017-04-25T13:33:35.164Z,55
2017-04-25T13:34:48.268Z,55
2017-04-25T13:36:15.355Z,55
2017-04-25T13:37:28.424Z,55
2017-04-25T13:38:41.489Z,55
2017-04-25T13:39:54.562Z,55
2017-04-25T13:41:07.629Z,55
2017-04-25T13:42:19.093Z,55
2017-04-25T13:43:31.536Z,55
2017-04-25T13:44:44.467Z,55
2017-04-25T13:45:57.111Z,55
2017-04-25T13:47:10.051Z,55
2017-04-25T13:48:22.488Z,55
2017-04-25T13:49:35.450Z,55
2017-04-25T13:50:48.379Z,55
2017-04-25T13:52:00.132Z,55
2017-04-25T13:53:11.112Z,55
2017-04-25T13:54:24.042Z,55
2017-04-25T13:55:36.487Z,55
2017-04-25T13:56:48.449Z,55
2017-04-25T13:58:01.625Z,55
2017-04-25T13:59:14.594Z,55
2017-04-25T14:00:27.043Z,45
2017-04-25T14:01:39.013Z,55
2017-04-25T14:02:49.491Z,65
2017-04-25T14:04:15.992Z,60
2017-04-25T14:05:28.427Z,60
2017-04-25T14:06:41.354Z,60
2017-04-25T14:07:54.284Z,60
2017-04-25T14:09:07.220Z,60
2017-04-25T14:10:19.658Z,55
2017-04-25T14:11:31.119Z,60
2017-04-25T14:12:42.089Z,60
2017-04-25T14:13:54.035Z,60
2017-04-25T14:15:05.894Z,60
2017-04-25T14:16:18.828Z,60
2017-04-25T14:17:31.267Z,60
2017-04-25T14:18:43.707Z,60
2017-04-25T14:19:56.636Z,60
2017-04-25T14:21:09.566Z,60
2017-04-25T14:22:20.529Z,60
2017-04-25T14:23:32.356Z,35
2017-04-25T14:24:44.197Z,60
2017-04-25T14:25:54.751Z,60
2017-04-25T14:27:05.592Z,60
2017-04-25T14:28:17.873Z,60
2017-04-25T14:29:30.630Z,60
2017-04-25T14:30:44.209Z,60
2017-04-25T14:31:55.045Z,60
2017-04-25T14:33:06.838Z,55
2017-04-25T14:34:17.670Z,55
2017-04-25T14:35:29.459Z,55
2017-04-25T14:36:39.816Z,55
2017-04-25T14:37:51.604Z,55
2017-04-25T14:39:04.356Z,60
2017-04-25T14:40:16.151Z,55
2017-04-25T14:41:28.897Z,55
2017-04-25T14:42:41.182Z,55
2017-04-25T14:43:53.949Z,50
2017-04-25T14:45:06.702Z,50
2017-04-25T14:46:18.966Z,50
2017-04-25T14:47:30.806Z,50
2017-04-25T14:48:43.589Z,50
2017-04-25T14:49:56.341Z,50
2017-04-25T14:51:08.627Z,50
2017-04-25T14:52:20.901Z,50
2017-04-25T14:53:33.661Z,50
2017-04-25T14:54:46.610Z,45
2017-04-25T14:55:59.368Z,45
2017-04-25T14:57:12.116Z,45
2017-04-25T14:58:24.388Z,45
2017-04-25T14:59:37.346Z,45
2017-04-25T15:00:50.097Z,45
2017-04-25T15:02:02.850Z,45
2017-04-25T15:03:15.126Z,40
2017-04-25T15:04:28.029Z,35
2017-04-25T15:05:40.781Z,25
2017-04-25T15:06:53.543Z,25
2017-04-25T15:08:06.290Z,30
2017-04-25T15:09:19.051Z,40
2017-04-25T15:10:31.321Z,40
2017-04-25T15:11:44.070Z,40
2017-04-25T15:12:56.885Z,40
2017-04-25T15:14:10.037Z,40
2017-04-25T15:15:23.143Z,20
2017-04-25T15:16:35.790Z,25
2017-04-25T15:17:48.901Z,35
2017-04-25T15:19:02.381Z,35
2017-04-25T15:20:15.230Z,25
2017-04-25T15:21:28.382Z,35
2017-04-25T15:22:41.530Z,35
2017-04-25T15:23:54.998Z,30
2017-04-25T15:25:07.640Z,35
2017-04-25T15:26:20.309Z,35
2017-04-25T15:27:32.645Z,20
2017-04-25T15:28:45.811Z,35
2017-04-25T15:29:58.960Z,30
2017-04-25T15:31:12.134Z,35
2017-04-25T15:32:24.466Z,35
2017-04-25T15:33:37.220Z,35
2017-04-25T15:34:49.493Z,40
2017-04-25T15:36:02.387Z,35
2017-04-25T15:37:14.658Z,35
2017-04-25T15:38:27.423Z,35
2017-04-25T15:39:40.182Z,35
2017-04-25T15:40:52.457Z,35
2017-04-25T15:42:05.204Z,25
2017-04-25T15:43:17.476Z,20
2017-04-25T15:44:30.230Z,20
2017-04-25T15:45:42.980Z,20
2017-04-25T15:46:55.727Z,35
2017-04-25T15:48:08.482Z,35
2017-04-25T15:49:21.246Z,35
2017-04-25T15:50:33.524Z,35
2017-04-25T15:51:46.274Z,40
2017-04-25T15:52:59.030Z,35
2017-04-25T15:54:11.303Z,25
2017-04-25T15:55:38.134Z,25
2017-04-25T15:56:51.086Z,30
2017-04-25T15:58:03.960Z,35
2017-04-25T15:59:16.842Z,25
2017-04-25T16:00:29.235Z,20
2017-04-25T16:01:42.318Z,35
2017-04-25T16:02:55.210Z,30
2017-04-25T16:04:08.104Z,25
2017-04-25T16:05:20.984Z,30
2017-04-25T16:06:34.025Z,25
2017-04-25T16:07:47.088Z,25
2017-04-25T16:09:00.158Z,25
2017-04-25T16:10:12.721Z,20
2017-04-25T16:11:25.293Z,25
2017-04-25T16:12:38.359Z,30
2017-04-25T16:13:51.421Z,25
2017-04-25T16:15:04.485Z,25
2017-04-25T16:16:17.552Z,20
2017-04-25T16:17:30.825Z,20
2017-04-25T16:18:44.193Z,20
2017-04-25T16:19:57.266Z,20
2017-04-25T16:21:10.329Z,20
2017-04-25T16:22:23.105Z,20
2017-04-25T16:23:35.682Z,20
2017-04-25T16:24:48.749Z,20
2017-04-25T16:26:01.816Z,20
2017-04-25T16:27:14.384Z,20
2017-04-25T16:28:27.478Z,20
2017-04-25T16:29:40.574Z,25
2017-04-25T16:30:53.639Z,20
2017-04-25T16:32:06.700Z,20
2017-04-25T16:33:19.268Z,20
2017-04-25T16:34:32.347Z,20
2017-04-25T16:35:45.414Z,15
2017-04-25T16:36:58.487Z,20
2017-04-25T16:38:11.550Z,20
2017-04-25T16:39:24.625Z,20
2017-04-25T16:40:37.190Z,15
2017-04-25T16:41:50.259Z,20
2017-04-25T16:43:03.200Z,20
2017-04-25T16:44:16.128Z,20
2017-04-25T16:45:28.573Z,20
2017-04-25T16:46:41.501Z,20
2017-04-25T16:47:54.434Z,20
2017-04-25T16:49:07.360Z,20
2017-04-25T16:50:20.316Z,20
2017-04-25T16:51:33.246Z,20
2017-04-25T16:52:46.179Z,20
2017-04-25T16:53:59.117Z,20
2017-04-25T16:55:12.059Z,20
2017-04-25T16:56:24.499Z,20
2017-04-25T16:57:37.431Z,20
2017-04-25T16:58:50.362Z,15
2017-04-25T17:00:03.492Z,20
2017-04-25T17:01:15.439Z,20
2017-04-25T17:02:28.364Z,15
2017-04-25T17:03:40.805Z,10
2017-04-25T17:04:53.735Z,15
2017-04-25T17:06:06.861Z,20
2017-04-25T17:07:19.300Z,20
2017-04-25T17:08:32.231Z,20
2017-04-25T17:09:45.165Z,15
2017-04-25T17:10:58.092Z,10
2017-04-25T17:12:10.343Z,20
2017-04-25T17:13:23.276Z,10
2017-04-25T17:14:36.210Z,10
2017-04-25T17:15:49.145Z,10
2017-04-25T17:17:02.078Z,10
2017-04-25T17:18:14.515Z,10
2017-04-25T17:19:26.461Z,15
2017-04-25T17:20:38.902Z,15
2017-04-25T17:21:51.836Z,15
2017-04-25T17:23:04.762Z,20
2017-04-25T17:24:17.692Z,20
2017-04-25T17:25:30.621Z,20
2017-04-25T17:26:43.752Z,20
2017-04-25T17:27:56.681Z,20
2017-04-25T17:29:09.615Z,20
2017-04-25T17:30:22.056Z,20
2017-04-25T17:33:01.473Z,15
2017-04-25T17:34:13.911Z,10
2017-04-25T17:35:26.841Z,10
2017-04-25T17:36:39.969Z,15
2017-04-25T17:37:52.909Z,20
2017-04-25T17:39:05.841Z,20
2017-04-25T17:40:18.770Z,20
2017-04-25T17:41:31.703Z,15
2017-04-25T17:42:44.633Z,15
2017-04-25T17:43:57.567Z,15
2017-04-25T17:45:10.500Z,15
2017-04-25T17:46:23.430Z,10
2017-04-25T17:47:50.116Z,10
2017-04-25T17:49:02.486Z,15
2017-04-25T17:50:14.294Z,20
2017-04-25T17:51:27.052Z,20
2017-04-25T17:52:39.820Z,20
2017-04-25T17:53:52.588Z,20
2017-04-25T17:55:05.351Z,15
2017-04-25T17:56:32.207Z,15
2017-04-25T17:57:43.545Z,20
2017-04-25T17:58:56.305Z,20
2017-04-25T18:00:08.585Z,20
2017-04-25T18:01:21.364Z,20
2017-04-25T18:02:34.126Z,20
2017-04-25T18:03:46.407Z,20
2017-04-25T18:04:59.189Z,20
2017-04-25T18:06:11.471Z,20
2017-04-25T18:07:23.747Z,20
2017-04-25T18:08:36.504Z,10
2017-04-25T18:09:49.276Z,15
2017-04-25T18:11:01.561Z,20
2017-04-25T18:12:14.318Z,15
2017-04-25T18:13:26.606Z,15
2017-04-25T18:14:38.896Z,15
2017-04-25T18:15:51.644Z,10
2017-04-25T18:17:04.397Z,10
2017-04-25T18:18:17.164Z,10
2017-04-25T18:19:29.939Z,15
2017-04-25T18:20:43.014Z,20
2017-04-25T18:21:55.768Z,20
2017-04-25T18:23:08.526Z,15
2017-04-25T18:24:20.323Z,15
2017-04-25T18:25:32.806Z,15
2017-04-25T18:26:45.587Z,15
2017-04-25T18:27:58.355Z,15
2017-04-25T18:29:11.128Z,15
2017-04-25T18:30:23.898Z,15
2017-04-25T18:31:36.653Z,15
2017-04-25T18:32:49.407Z,15
2017-04-25T18:34:02.172Z,15
2017-04-25T18:35:15.134Z,15
2017-04-25T18:36:27.891Z,15
2017-04-25T18:37:40.657Z,15
2017-04-25T18:38:53.414Z,15
2017-04-25T18:40:05.686Z,15
2017-04-25T18:41:17.478Z,15
2017-04-25T18:42:30.433Z,15
2017-04-25T18:43:43.196Z,10
2017-04-25T18:44:55.473Z,15
2017-04-25T18:46:08.229Z,15
2017-04-25T18:47:21.188Z,15
2017-04-25T18:48:33.945Z,15
2017-04-25T18:49:46.695Z,15
2017-04-25T18:50:59.450Z,15
2017-04-25T18:52:11.729Z,15
2017-04-25T18:53:24.480Z,10
2017-04-25T18:54:36.277Z,15
2017-04-25T18:55:49.030Z,15
2017-04-25T18:57:01.401Z,15
2017-04-25T18:58:14.291Z,15
2017-04-25T18:59:27.185Z,10
2017-04-25T19:00:39.590Z,10
2017-04-25T19:01:52.480Z,10
2017-04-25T19:03:05.365Z,10
2017-04-25T19:04:18.255Z,10
2017-04-25T19:05:30.661Z,15
2017-04-25T19:06:43.064Z,10
2017-04-25T19:07:55.955Z,10
2017-04-25T19:09:08.842Z,10
2017-04-25T19:10:21.238Z,15
2017-04-25T19:11:47.692Z,15
2017-04-25T19:13:00.574Z,15
2017-04-25T19:14:12.978Z,15
2017-04-25T19:15:24.887Z,15
2017-04-25T19:16:37.771Z,15
2017-04-25T19:17:50.665Z,10
2017-04-25T19:19:03.550Z,15
2017-04-25T19:20:16.443Z,15
2017-04-25T19:21:28.836Z,15
2017-04-25T19:22:40.277Z,5
2017-04-25T19:23:52.690Z,5
2017-04-25T19:25:05.788Z,5
2017-04-25T19:26:18.682Z,5
2017-04-25T19:27:31.573Z,5
2017-04-25T19:28:44.454Z,15
2017-04-25T19:29:57.343Z,5
2017-04-25T19:31:10.237Z,5
2017-04-25T19:32:22.640Z,5
2017-04-25T19:33:35.533Z,5
2017-04-25T19:34:48.415Z,5
2017-04-25T19:36:00.811Z,5
2017-04-25T19:37:13.214Z,5
2017-04-25T19:38:25.613Z,5
2017-04-25T19:39:38.911Z,5
2017-04-25T19:40:51.799Z,5
2017-04-25T19:42:04.557Z,5
2017-04-25T19:43:17.312Z,5
2017-04-25T19:44:30.062Z,5
2017-04-25T19:45:42.341Z,5
2017-04-25T19:46:54.612Z,5
2017-04-25T19:48:07.364Z,5
2017-04-25T19:49:19.159Z,10
2017-04-25T19:50:31.734Z,5
2017-04-25T19:51:44.481Z,5
2017-04-25T19:52:57.238Z,5
2017-04-25T19:54:09.510Z,5
2017-04-25T19:55:22.080Z,5
2017-04-25T19:56:34.832Z,5
2017-04-25T19:57:47.624Z,5
2017-04-25T19:59:00.377Z,5
2017-04-25T20:00:13.130Z,5
2017-04-25T20:01:26.075Z,5
2017-04-25T20:02:38.359Z,5
2017-04-25T20:03:50.640Z,5
2017-04-25T20:05:03.389Z,5
2017-04-25T20:06:16.147Z,5
2017-04-25T20:07:28.418Z,5
2017-04-25T20:08:41.179Z,5
2017-04-25T20:09:53.936Z,5
2017-04-25T20:11:06.685Z,5
2017-04-25T20:12:19.431Z,0
2017-04-25T20:13:32.187Z,0
2017-04-25T20:14:44.940Z,0
2017-04-25T20:15:57.686Z,0
2017-04-25T20:17:10.737Z,0
2017-04-25T20:18:23.490Z,0
2017-04-25T20:19:36.240Z,0
2017-04-25T20:20:48.991Z,0
2017-04-25T20:22:01.755Z,0
2017-04-25T20:23:14.508Z,0
2017-04-25T20:24:27.263Z,0
2017-04-25T20:25:40.009Z,0
2017-04-25T20:26:52.758Z,0
2017-04-25T20:28:05.508Z,0
2017-04-25T20:29:18.257Z,0
2017-04-25T20:30:30.538Z,0
2017-04-25T20:31:43.288Z,0
2017-04-25T20:32:56.049Z,0
2017-04-25T20:34:08.806Z,0
2017-04-25T20:35:21.102Z,0
2017-04-25T20:36:33.371Z,0
2017-04-25T20:37:45.647Z,0
2017-04-25T20:38:58.407Z,0
2017-04-25T20:40:10.677Z,0
2017-04-25T20:41:23.581Z,0
2017-04-25T20:42:36.507Z,0
2017-04-25T20:43:49.434Z,0
2017-04-25T20:45:02.362Z,0
2017-04-25T20:46:14.801Z,0
2017-04-25T20:47:27.728Z,0
2017-04-25T20:48:40.658Z,0
2017-04-25T20:49:53.094Z,0
2017-04-25T20:51:06.027Z,0
2017-04-25T20:52:17.972Z,0
2017-04-25T20:53:30.911Z,0
2017-04-25T20:54:43.848Z,0
2017-04-25T20:55:56.776Z,0
2017-04-25T20:57:09.905Z,0
2017-04-25T20:58:22.837Z,0
2017-04-25T20:59:35.280Z,0
2017-04-25T21:00:48.246Z,0
2017-04-25T21:02:01.183Z,0
2017-04-25T21:03:14.313Z,0
2017-04-25T21:04:27.243Z,0
2017-04-25T21:05:40.169Z,0
2017-04-25T21:06:53.099Z,0
2017-04-25T21:08:06.033Z,0
2017-04-25T21:09:18.968Z,0
2017-04-25T21:10:31.898Z,0
2017-04-25T21:11:44.926Z,0
2017-04-25T21:12:57.493Z,0
2017-04-25T21:14:10.558Z,0
2017-04-25T21:15:22.981Z,0
2017-04-25T21:16:35.864Z,0
2017-04-25T21:17:48.748Z,0
2017-04-25T21:19:01.634Z,0
2017-04-25T21:20:14.518Z,0
2017-04-25T21:21:26.924Z,0
2017-04-25T21:22:39.831Z,0
2017-04-25T21:23:52.712Z,0
2017-04-25T21:25:05.107Z,0
2017-04-25T21:26:17.506Z,0
2017-04-25T21:27:30.391Z,0
2017-04-25T21:28:43.283Z,0
2017-04-25T21:29:55.678Z,0
2017-04-25T21:31:08.561Z,0
2017-04-25T21:32:20.956Z,0
2017-04-25T21:33:33.840Z,0
2017-04-25T21:34:46.755Z,0
2017-04-25T21:35:59.837Z,0
2017-04-25T21:37:12.719Z,0
2017-04-25T21:38:24.630Z,0
2017-04-25T21:39:37.509Z,0
2017-04-25T21:40:50.593Z,0
2017-04-25T21:42:03.474Z,0
2017-04-25T21:43:15.871Z,0
2017-04-25T21:44:28.767Z,0
2017-04-25T21:45:41.651Z,0
2017-04-25T21:46:54.839Z,0
2017-04-25T21:48:07.726Z,0
2017-04-25T21:49:19.684Z,0
2017-04-25T21:50:32.597Z,0
2017-04-25T21:51:44.993Z,0
2017-04-25T21:52:57.875Z,0
2017-04-25T21:54:10.761Z,0
2017-04-25T21:55:23.186Z,0
2017-04-25T21:56:35.580Z,0
2017-04-25T21:57:48.462Z,0
2017-04-25T21:59:01.348Z,0
2017-04-25T22:00:13.745Z,0
2017-04-25T22:01:26.139Z,0
2017-04-25T22:02:38.543Z,0
2017-04-25T22:03:51.426Z,0
2017-04-25T22:05:04.311Z,0
2017-04-25T22:06:16.714Z,0
2017-04-25T22:07:29.601Z,0
2017-04-25T22:08:42.484Z,0
2017-04-25T22:09:54.879Z,0
2017-04-25T22:11:07.763Z,0
2017-04-25T22:12:20.647Z,0
2017-04-25T22:13:33.567Z,0
2017-04-25T22:14:45.958Z,0
2017-04-25T22:15:58.838Z,0
2017-04-25T22:17:11.234Z,0
2017-04-25T22:18:24.115Z,0
2017-04-25T22:19:36.511Z,0
2017-04-25T22:20:49.397Z,0
2017-04-25T22:22:02.277Z,0
2017-04-25T22:23:14.674Z,0
2017-04-25T22:24:27.760Z,0
2017-04-25T22:25:40.645Z,0
2017-04-25T22:26:53.562Z,0
2017-04-25T22:28:05.957Z,0
2017-04-25T22:29:18.846Z,0
2017-04-25T22:30:31.735Z,0
2017-04-25T22:31:44.616Z,0
2017-04-25T22:32:57.499Z,0
2017-04-25T22:34:09.898Z,0
2017-04-25T22:35:22.794Z,0
2017-04-25T22:36:35.693Z,0
2017-04-25T22:37:48.587Z,0
2017-04-25T22:39:01.483Z,0
2017-04-25T22:40:14.372Z,0
2017-04-25T22:41:27.272Z,0
2017-04-25T22:42:40.178Z,0
2017-04-25T22:43:53.080Z,0
2017-04-25T22:45:05.483Z,0
2017-04-25T22:47:45.334Z,0
2017-04-25T22:48:58.239Z,0
2017-04-25T22:50:11.141Z,0
2017-04-25T22:51:24.065Z,0
2017-04-25T22:52:36.473Z,0
2017-04-25T22:53:49.374Z,0
2017-04-25T22:55:02.264Z,0
2017-04-25T22:56:15.151Z,0
2017-04-25T22:57:28.239Z,0
2017-04-25T22:58:41.297Z,0
2017-04-25T22:59:54.373Z,0
2017-04-25T23:01:07.467Z,0
2017-04-25T23:02:20.744Z,0
2017-04-25T23:03:33.817Z,0
2017-04-25T23:04:46.888Z,0
2017-04-25T23:05:59.953Z,0
2017-04-25T23:07:13.039Z,0
2017-04-25T23:08:25.612Z,0
2017-04-25T23:09:38.695Z,0
2017-04-25T23:10:51.814Z,0
2017-04-25T23:12:04.903Z,0
2017-04-25T23:13:18.191Z,0
2017-04-25T23:14:31.295Z,0
2017-04-25T23:15:44.383Z,0
2017-04-25T23:16:56.985Z,0
2017-04-25T23:18:10.066Z,0
2017-04-25T23:19:23.171Z,0
2017-04-25T23:20:35.766Z,0
2017-04-25T23:21:48.845Z,0
2017-04-25T23:23:01.920Z,0
2017-04-25T23:24:15.012Z,0
2017-04-25T23:25:28.086Z,0
2017-04-25T23:26:41.185Z,0
2017-04-25T23:27:54.287Z,0
2017-04-25T23:29:07.389Z,0
2017-04-25T23:31:48.720Z,0
2017-04-25T23:33:01.770Z,0
2017-04-25T23:34:14.818Z,0
2017-04-25T23:35:27.874Z,0
2017-04-25T23:36:40.913Z,0
2017-04-25T23:37:53.960Z,0
2017-04-25T23:39:06.994Z,0
2017-04-25T23:40:19.834Z,0
2017-04-25T23:41:32.868Z,0
2017-04-25T23:42:45.951Z,0
2017-04-25T23:43:59.001Z,0
2017-04-25T23:45:11.550Z,0
2017-04-25T23:46:24.091Z,0
2017-04-25T23:47:37.131Z,0
2017-04-25T23:48:50.184Z,0
2017-04-25T23:50:03.231Z,0
2017-04-25T23:51:15.972Z,0
2017-04-25T23:52:29.005Z,0
2017-04-25T23:53:42.058Z,0
2017-04-25T23:54:54.624Z,0
2017-04-25T23:56:07.661Z,0
2017-04-25T23:57:20.706Z,0
2017-04-25T23:58:33.257Z,0
2017-04-25T23:59:45.790Z,0
